Flight Track Log - Related Links

Times and Time Zones

All times are in EDT time to prevent confusion due to time zone crossing. See the FLG3726 flight status page for this flight to view local times or setup timezone preferences in your user account.

Time Position Orientation Groundspeed Altitude Reporting Facility
EDT Latitude Longitude Course Direction KTS MPH feet Rate Location/Type
Sun 02:31:33 PM 44.8881 -93.3003 239° Southwest 197 227 3,500  Level Minneapolis Center
Sun 02:32:35 PM 44.8489 -93.3908 239° Southwest 260 299 6,500 2,613 Climbing Minneapolis Center
Sun 02:33:37 PM 44.7761 -93.4322 202° Southwest 310 357 8,900 2,323 Climbing Minneapolis Center
Sun 02:34:39 PM 44.6931 -93.4678 197° South 318 366 11,300 1,790 Climbing Minneapolis Center
Sun 02:35:41 PM 44.6042 -93.5217 203° Southwest 348 400 12,600 1,171 Climbing Minneapolis Center
Sun 02:36:42 PM 44.4853 -93.5872 201° Southwest 387 445 13,700 1,024 Climbing Minneapolis Center
Sun 02:37:44 PM 44.3814 -93.6533 204° Southwest 409 471 14,700 1,016 Climbing Minneapolis Center
Sun 02:38:46 PM 44.2808 -93.7369 211° Southwest 419 482 15,800 1,065 Climbing Minneapolis Center
Sun 02:39:48 PM 44.1792 -93.8189 210° Southwest 422 486 16,900 1,016 Climbing Minneapolis Center
Sun 02:40:50 PM 44.0767 -93.9011 210° Southwest 426 490 17,900 976 Climbing Minneapolis Center
Sun 02:41:51 PM 43.9742 -93.9831 210° Southwest 425 489 18,900 976 Climbing Minneapolis Center
Sun 02:42:53 PM 43.8664 -94.0547 206° Southwest 431 496 19,900 1,065 Climbing Minneapolis Center
Sun 02:43:55 PM 43.7294 -94.1222 200° South 436 502 21,100 1,065 Climbing Minneapolis Center
Sun 02:44:57 PM 43.6158 -94.1775 199° South 434 499 22,100 976 Climbing Minneapolis Center
Sun 02:45:58 PM 43.5008 -94.2328 199° South 434 499 23,100 829 Climbing Minneapolis Center
Sun 02:47:00 PM 43.3911 -94.2850 199° South 436 502 23,800 726 Climbing Minneapolis Center
Sun 02:48:02 PM 43.2753 -94.3403 199° South 438 504 24,600 774 Climbing Minneapolis Center
Sun 02:49:04 PM 43.1356 -94.4069 199° South 442 509 25,400 634 Climbing Minneapolis Center
Sun 02:50:05 PM 43.0169 -94.4639 199° South 447 514 25,900 488 Climbing Minneapolis Center
Sun 02:51:07 PM 42.9000 -94.5214 200° South 449 517 26,400 484 Climbing Minneapolis Center
Sun 02:52:09 PM 42.7800 -94.5778 199° South 453 521 26,900 484 Climbing Minneapolis Center
Sun 02:53:11 PM 42.6592 -94.6342 199° South 455 524 27,400 488 Climbing Minneapolis Center
Sun 02:54:12 PM 42.5367 -94.6917 199° South 462 532 27,900 489 Climbing Minneapolis Center
Sun 02:55:26 PM 42.3906 -94.7606 199° South 463 533 28,500 529 Climbing Minneapolis Center
Sun 02:56:28 PM 42.2447 -94.8292 199° South 461 531 29,100 532 Climbing Minneapolis Center
Sun 02:57:30 PM 42.1233 -94.8847 199° South 460 529 29,600 439 Climbing Minneapolis Center
Sun 02:58:31 PM 42.0011 -94.9403 199° South 461 531 30,000 195 Climbing Minneapolis Center
Sun 02:59:33 PM 41.8781 -94.9925 198° South 462 532 30,000  Level Minneapolis Center
Sun 03:00:35 PM 41.7525 -95.0517 199° South 470 541 30,000  Level Minneapolis Center
Sun 03:01:37 PM 41.6239 -95.1092 198° South 479 551 30,000  Level Minneapolis Center
Sun 03:02:38 PM 41.4972 -95.1667 199° South 481 554 30,000  Level Minneapolis Center
Sun 03:03:40 PM 41.3700 -95.2233 198° South 479 551 30,000  Level Minneapolis Center
Sun 03:04:42 PM 41.2444 -95.2811 199° South 476 548 30,000  Level Minneapolis Center
Sun 03:05:43 PM 41.0931 -95.3475 198° South 474 545 30,000  Level Minneapolis Center
Sun 03:06:45 PM 40.9672 -95.4039 199° South 473 544 30,000  Level Minneapolis Center
Sun 03:07:47 PM 40.8414 -95.4594 198° South 474 545 30,000  Level Minneapolis Center
Sun 03:08:48 PM 40.7147 -95.5158 199° South 475 547 30,000  Level Minneapolis Center
Sun 03:09:50 PM 40.5892 -95.5711 198° South 475 547 30,000  Level Minneapolis Center
Sun 03:10:51 PM 40.4633 -95.6272 199° South 475 547 30,000  Level Minneapolis Center
Sun 03:11:53 PM 40.3383 -95.6792 198° South 473 544 30,000  Level Minneapolis Center
Sun 03:12:54 PM 40.2136 -95.7331 198° South 471 542 30,000  Level Minneapolis Center
Sun 03:13:42 PM 40.1139 -95.7794 200° South 472 543 30,000  Level Kansas City Center
Sun 03:14:43 PM 39.9761 -95.8378 198° South 469 540 30,000  Level Kansas City Center
Sun 03:15:45 PM 39.8581 -95.8892 198° South 467 537 30,000  Level Kansas City Center
Sun 03:16:46 PM 39.7197 -95.9472 198° South 469 540 30,000  Level Kansas City Center
Sun 03:17:47 PM 39.6019 -95.9969 198° South 467 537 30,000  Level Kansas City Center
Sun 03:18:49 PM 39.4833 -96.0469 198° South 469 540 30,000  Level Kansas City Center
Sun 03:19:50 PM 39.3467 -96.1047 198° South 465 535 30,000  Level Kansas City Center
Sun 03:20:51 PM 39.2286 -96.1558 199° South 467 537 30,000  Level Kansas City Center
Sun 03:21:53 PM 39.0919 -96.2119 198° South 465 535 30,000  Level Kansas City Center
Sun 03:22:54 PM 38.9744 -96.2614 198° South 466 536 30,000  Level Kansas City Center
Sun 03:23:56 PM 38.8381 -96.3183 198° South 463 533 30,000  Level Kansas City Center
Sun 03:24:57 PM 38.7203 -96.3664 198° South 464 534 30,000  Level Kansas City Center
Sun 03:25:58 PM 38.6025 -96.4150 198° South 464 534 30,000  Level Kansas City Center
Sun 03:27:00 PM 38.4656 -96.4719 198° South 465 535 30,000  Level Kansas City Center
Sun 03:28:01 PM 38.3403 -96.5231 198° South 463 533 30,000  Level Kansas City Center
Sun 03:29:02 PM 38.2175 -96.5725 198° South 461 531 30,000  Level Kansas City Center
Sun 03:30:04 PM 38.0956 -96.6222 198° South 460 529 30,000  Level Kansas City Center
Sun 03:31:05 PM 37.9731 -96.6717 198° South 459 528 30,000  Level Kansas City Center
Sun 03:32:06 PM 37.8506 -96.7206 197° South 460 529 30,000  Level Kansas City Center
Sun 03:33:08 PM 37.7278 -96.7711 198° South 461 531 30,000  Level Kansas City Center
Sun 03:34:09 PM 37.6047 -96.8200 197° South 461 531 30,000  Level Kansas City Center
Sun 03:35:10 PM 37.4814 -96.8692 198° South 462 532 30,000  Level Kansas City Center
Sun 03:36:12 PM 37.3581 -96.9186 198° South 463 533 30,000  Level Kansas City Center
Sun 03:37:13 PM 37.2322 -96.9683 197° South 467 537 30,000  Level Kansas City Center
Sun 03:38:14 PM 37.0836 -97.0283 198° South 468 539 30,000  Level Kansas City Center
Sun 03:39:15 PM 36.9586 -97.0783 198° South 468 539 30,000 -537 Level Kansas City Center
Sun 03:40:17 PM 36.8378 -97.1197 195° South 457 526 28,900 -1,415 Descending Kansas City Center
Sun 03:41:18 PM 36.7219 -97.1603 196° South 467 537 27,100 -1,721 Descending Kansas City Center
Sun 03:42:19 PM 36.5969 -97.1503 176° South 450 518 25,400 -1,707 Descending Kansas City Center
Sun 03:43:21 PM 36.4758 -97.1558 182° South 437 503 23,600 -1,951 Descending Kansas City Center
Sun 03:44:22 PM 36.3292 -97.1497 178° South 438 504 21,400 -1,967 Descending Kansas City Center
Sun 03:45:23 PM 36.2078 -97.1486 180° South 436 502 19,600 -1,770 Descending Kansas City Center
Sun 03:46:24 PM 36.0897 -97.1450 179° South 429 494 17,800 -1,805 Descending Kansas City Center
Sun 03:47:26 PM 35.9844 -97.1658 189° South 395 455 15,900 -2,000 Descending Kansas City Center
Sun 03:48:27 PM 35.8944 -97.2294 210° Southwest 376 433 13,700 -2,146 Descending Kansas City Center
Sun 03:49:29 PM 35.8153 -97.2864 210° Southwest 342 394 11,500 -1,902 Descending Kansas City Center
Sun 03:50:30 PM 35.7419 -97.3381 210° Southwest 314 361 9,800 -1,623 Descending Kansas City Center
Sun 03:51:31 PM 35.6775 -97.3844 210° Southwest 282 325 8,200 -1,663 Descending Kansas City Center
Sun 03:52:11 PM 35.6211 -97.4239 210° Southwest 273 314 7,000 -1,307 Descending Fort Worth Center
Sun 03:53:12 PM 35.5458 -97.4647 204° Southwest 284 327 6,000 -1,140 Descending Fort Worth Center
Sun 03:54:12 PM 35.4667 -97.4772 187° South 279 321 4,700 -992 Descending Fort Worth Center
Sun 03:55:13 PM 35.3894 -97.4900 188° South 279 321 4,000 -347 Descending Fort Worth Center
Sun 03:56:13 PM 35.3103 -97.5078 190° South 286 329 4,000 -149 Level Fort Worth Center
Sun 03:57:14 PM 35.2456 -97.5381 201° Southwest 251 289 3,700 -492 Descending Fort Worth Center
Sun 03:58:15 PM 35.2747 -97.5942 302° West 200 230 3,000 -645 Descending Fort Worth Center
Sun 03:59:15 PM 35.3206 -97.5942 360° North 142 163 2,400 -645 Descending Fort Worth Center
Sun 04:00:16 PM 35.3581 -97.5942 360° North 127 146 1,700 -689 Descending Fort Worth Center

Login

Don't have an account? Register now (free) for customized features, flight alerts, and more!